Time;durP1;ratioP1;P1;durP2;ratioP2;P2;SDS_P1;SDS_P2;PMS_P1;PMS_P2;Temp;Humidity;BMP_temperature;BMP_pressure;BME280_temperature;BME280_humidity;BME280_pressure;Samples;Min_cycle;Max_cycle;Signal;HPM_P1;HPM_P2
2022/03/01 00:02:12;;;;;;;7.00;5.32;;;;;;;15.82;34.46;94616.59;4874635;29;20435;-88
2022/03/01 00:04:38;;;;;;;7.40;4.70;;;;;;;15.81;33.94;94615.09;4874557;29;20457;-88
2022/03/01 00:07:04;;;;;;;6.43;4.63;;;;;;;15.83;34.00;94615.38;4874103;29;20044;-91
2022/03/01 00:09:29;;;;;;;5.97;4.68;;;;;;;15.81;34.54;94612.38;4890324;29;20116;-87
2022/03/01 00:11:54;;;;;;;5.45;4.70;;;;;;;15.80;34.01;94613.59;4874551;29;20044;-87
2022/03/01 00:14:20;;;;;;;6.22;4.78;;;;;;;15.80;33.76;94610.88;4874414;29;20096;-88
2022/03/01 00:16:45;;;;;;;6.45;4.80;;;;;;;15.80;34.26;94605.44;4877824;29;20076;-88
2022/03/01 00:19:11;;;;;;;6.82;4.72;;;;;;;15.77;34.19;94601.66;4877511;29;20447;-87
2022/03/01 00:21:36;;;;;;;6.00;4.65;;;;;;;15.80;34.13;94608.16;4881431;29;20040;-88
2022/03/01 00:24:02;;;;;;;5.88;4.88;;;;;;;15.81;34.32;94604.94;4912938;29;20044;-89
2022/03/01 00:26:27;;;;;;;6.45;4.60;;;;;;;15.75;34.28;94604.09;4896868;29;20055;-88
2022/03/01 00:28:52;;;;;;;6.63;4.68;;;;;;;15.74;34.18;94595.16;4914808;29;20047;-88
2022/03/01 00:31:18;;;;;;;6.80;4.60;;;;;;;15.74;33.95;94594.41;4903613;28;20094;-88
2022/03/01 00:33:44;;;;;;;5.15;4.03;;;;;;;15.74;34.24;94595.16;4936671;29;20039;-88
2022/03/01 00:36:10;;;;;;;5.47;4.18;;;;;;;15.73;33.81;94590.91;4935889;28;20043;-88
2022/03/01 00:38:35;;;;;;;7.65;4.50;;;;;;;15.77;34.18;94591.50;4936561;29;20448;-88
2022/03/01 00:41:00;;;;;;;5.95;4.32;;;;;;;15.78;34.14;94592.25;4939612;28;20081;-88
2022/03/01 00:43:26;;;;;;;4.80;3.92;;;;;;;15.77;34.40;94566.97;4938759;28;20058;-88
2022/03/01 00:45:52;;;;;;;5.45;4.35;;;;;;;15.76;34.16;94568.19;4923594;28;20035;-87
2022/03/01 00:48:17;;;;;;;6.68;4.50;;;;;;;15.76;34.38;94567.44;4922998;28;20049;-88
2022/03/01 00:50:43;;;;;;;5.88;4.60;;;;;;;15.76;34.23;94579.09;4939175;28;20517;-89
2022/03/01 00:53:08;;;;;;;6.63;4.43;;;;;;;15.77;34.38;94564.25;4938723;28;20035;-90
2022/03/01 00:55:33;;;;;;;5.47;3.95;;;;;;;15.76;33.97;94573.63;4923745;28;20113;-89
2022/03/01 00:57:59;;;;;;;8.30;4.85;;;;;;;15.71;34.28;94568.81;4923453;28;20117;-87
2022/03/01 01:00:24;;;;;;;5.72;4.45;;;;;;;15.72;34.07;94575.78;4938398;28;20039;-88
2022/03/01 01:02:50;;;;;;;6.60;4.32;;;;;;;15.73;34.23;94558.22;4939026;28;20050;-88
2022/03/01 01:05:15;;;;;;;5.90;4.10;;;;;;;15.72;34.01;94559.44;4938602;28;20030;-88
2022/03/01 01:07:41;;;;;;;4.70;3.95;;;;;;;15.70;34.22;94553.69;4939371;28;20090;-88
2022/03/01 01:10:07;;;;;;;5.85;3.92;;;;;;;15.71;34.47;94557.91;4938857;28;20066;-89
2022/03/01 01:12:32;;;;;;;4.70;3.58;;;;;;;15.73;34.34;94560.94;4946677;29;20059;-88
2022/03/01 01:14:58;;;;;;;7.18;4.35;;;;;;;15.76;34.36;94551.81;4904689;29;20035;-88
2022/03/01 01:17:23;;;;;;;6.15;3.78;;;;;;;15.75;34.23;94552.28;4950062;28;20548;-88
2022/03/01 01:19:49;;;;;;;4.53;3.33;;;;;;;15.73;34.33;94558.22;4954974;28;20489;-88
2022/03/01 01:24:58;;;;;;;4.53;3.40;;;;;;;15.75;34.02;94552.28;4938139;29;20090;-87
2022/03/01 01:27:23;;;;;;;5.43;3.97;;;;;;;15.74;34.02;94554.25;4919109;28;20035;-88
2022/03/01 01:29:49;;;;;;;7.25;4.13;;;;;;;15.74;34.17;94551.53;4919455;29;20031;-89
2022/03/01 01:32:14;;;;;;;7.15;3.72;;;;;;;15.74;34.22;94550.78;4920249;28;20490;-88
2022/03/01 01:34:39;;;;;;;5.60;3.70;;;;;;;15.76;34.49;94561.97;4938464;28;20512;-87
2022/03/01 01:37:05;;;;;;;5.45;3.72;;;;;;;15.77;34.16;94563.50;4937911;28;20055;-88
2022/03/01 01:39:30;;;;;;;5.55;3.90;;;;;;;15.74;33.78;94553.50;4952763;28;20280;-88
2022/03/01 01:41:56;;;;;;;5.15;3.97;;;;;;;15.74;34.21;94556.22;4919283;29;20418;-89
2022/03/01 01:44:21;;;;;;;5.40;3.60;;;;;;;15.75;33.97;94552.28;4934819;29;20039;-88
2022/03/01 01:46:46;;;;;;;4.65;3.47;;;;;;;15.74;33.73;94551.53;4919018;29;20442;-88
2022/03/01 01:49:12;;;;;;;5.63;3.65;;;;;;;15.71;33.99;94551.72;4942739;28;20334;-89
2022/03/01 01:51:37;;;;;;;5.60;3.60;;;;;;;15.72;33.81;94537.63;4938495;28;20288;-87
2022/03/01 01:54:04;;;;;;;5.57;3.85;;;;;;;15.74;34.27;94540.63;4921585;29;20051;-88
2022/03/01 01:56:29;;;;;;;5.35;3.40;;;;;;;15.74;34.17;94542.59;4918965;29;20039;-88
2022/03/01 01:58:54;;;;;;;6.00;3.70;;;;;;;15.68;34.19;94545.22;4934679;29;20043;-88
2022/03/01 02:01:20;;;;;;;4.90;3.83;;;;;;;15.68;34.42;94547.19;4918383;29;20046;-87
2022/03/01 02:03:45;;;;;;;6.53;3.33;;;;;;;15.67;34.16;94540.22;4930493;28;20391;-88
2022/03/01 02:06:11;;;;;;;4.82;3.53;;;;;;;15.66;33.77;94533.25;4937753;28;20031;-89
2022/03/01 02:08:36;;;;;;;5.55;3.47;;;;;;;15.67;33.76;94535.53;4937257;28;20688;-88
2022/03/01 02:11:02;;;;;;;5.22;3.58;;;;;;;15.67;33.97;94537.50;4969898;28;20042;-88
2022/03/01 02:13:27;;;;;;;4.10;3.00;;;;;;;15.68;33.73;94536.28;4953260;28;20474;-87
2022/03/01 02:15:53;;;;;;;4.47;3.25;;;;;;;15.65;34.14;94534.47;4921859;28;20039;-87
2022/03/01 02:18:19;;;;;;;3.90;3.08;;;;;;;15.66;33.96;94534.03;4918056;28;20043;-88
2022/03/01 02:20:44;;;;;;;5.47;3.53;;;;;;;15.68;34.14;94531.59;4918725;29;20043;-90
2022/03/01 02:23:10;;;;;;;4.53;3.25;;;;;;;15.67;33.78;94535.53;4918284;28;20564;-89
2022/03/01 02:25:36;;;;;;;4.25;3.35;;;;;;;15.69;34.22;94535.06;4918975;29;20043;-88
2022/03/01 02:28:01;;;;;;;4.60;3.50;;;;;;;15.70;34.23;94534.59;4950030;29;20031;-87
2022/03/01 02:30:26;;;;;;;4.70;3.20;;;;;;;15.69;33.84;94535.06;4918111;29;20031;-90
2022/03/01 02:32:52;;;;;;;3.80;3.03;;;;;;;15.68;33.93;94526.13;4933971;29;20534;-88
2022/03/01 02:35:17;;;;;;;3.60;3.13;;;;;;;15.71;34.10;94522.47;4918027;28;20047;-91
2022/03/01 02:37:43;;;;;;;4.43;2.92;;;;;;;15.71;33.95;94519.75;4918421;29;20043;-87
2022/03/01 02:40:09;;;;;;;4.22;3.00;;;;;;;15.71;33.89;94522.47;4936726;28;20035;-89
2022/03/01 02:42:38;;;;;;;3.70;2.92;;;;;;;15.72;33.76;94525.97;4936902;28;20043;-89
2022/03/01 02:45:05;;;;;;;4.15;3.10;;;;;;;15.68;34.04;94515.22;4936829;28;20046;-88
2022/03/01 02:47:30;;;;;;;4.55;3.17;;;;;;;15.69;33.92;94513.25;4921356;28;20039;-87
2022/03/01 02:49:55;;;;;;;3.97;3.03;;;;;;;15.69;34.19;94507.81;4921023;28;20050;-89
2022/03/01 02:52:21;;;;;;;3.03;2.72;;;;;;;15.69;33.82;94507.81;4921012;28;20497;-87
2022/03/01 02:54:46;;;;;;;4.13;3.30;;;;;;;15.67;33.68;94510.25;4921308;28;20054;-89
2022/03/01 02:57:12;;;;;;;4.63;3.08;;;;;;;15.68;33.84;94503.56;4936132;28;20035;-89
2022/03/01 02:59:37;;;;;;;4.20;3.15;;;;;;;15.67;33.52;94502.06;4936709;28;20046;-88
2022/03/01 03:02:04;;;;;;;4.13;3.22;;;;;;;15.66;33.88;94508.72;4952325;28;20075;-87
2022/03/01 03:04:30;;;;;;;4.90;3.35;;;;;;;15.66;33.97;94506.75;4953324;28;20047;-89
2022/03/01 03:06:55;;;;;;;3.92;3.30;;;;;;;15.67;34.10;94505.53;4936579;28;20049;-88
2022/03/01 03:09:21;;;;;;;4.18;2.80;;;;;;;15.69;33.36;94502.34;4936010;28;20046;-88
2022/03/01 03:11:47;;;;;;;4.32;3.20;;;;;;;15.69;33.97;94496.91;4921172;28;20292;-89
2022/03/01 03:14:12;;;;;;;4.30;3.00;;;;;;;15.69;33.91;94502.34;4917321;28;20047;-88
2022/03/01 03:16:37;;;;;;;26.73;3.90;;;;;;;15.68;33.92;94506.28;4920960;28;20039;-88
2022/03/01 03:19:04;;;;;;;3.63;2.45;;;;;;;15.65;33.87;94505.25;4951536;28;20047;-87
2022/03/01 03:21:29;;;;;;;4.95;3.00;;;;;;;15.64;33.78;94503.00;4952837;28;20045;-88
2022/03/01 03:23:55;;;;;;;4.38;2.47;;;;;;;15.66;34.00;94500.56;4952790;28;20086;-88
2022/03/01 03:26:20;;;;;;;3.72;2.90;;;;;;;15.65;33.94;94499.81;4917800;29;20046;-88
2022/03/01 03:28:46;;;;;;;3.53;2.75;;;;;;;15.64;33.99;94489.38;4917912;29;20089;-87
2022/03/01 03:31:12;;;;;;;3.50;2.75;;;;;;;15.65;34.04;94491.63;4916710;29;20375;-87
2022/03/01 03:33:38;;;;;;;3.55;2.67;;;;;;;15.62;34.26;94487.09;4933619;29;20053;-88
2022/03/01 03:36:04;;;;;;;3.35;2.78;;;;;;;15.64;34.09;94483.91;4916838;29;20039;-88
2022/03/01 03:38:29;;;;;;;3.80;2.22;;;;;;;15.63;34.12;94464.06;4901501;29;20047;-88
2022/03/01 03:40:54;;;;;;;4.05;2.60;;;;;;;15.63;34.01;94463.31;4930063;28;20042;-89
2022/03/01 03:43:20;;;;;;;3.83;3.00;;;;;;;15.60;33.92;94456.06;4935911;28;20047;-88
2022/03/01 03:45:45;;;;;;;3.20;2.70;;;;;;;15.61;34.25;94465.75;4933293;29;20044;-87
2022/03/01 03:48:11;;;;;;;6.38;3.50;;;;;;;15.60;34.26;94456.84;4900639;29;20047;-87
2022/03/01 03:50:36;;;;;;;3.80;2.60;;;;;;;15.60;33.92;94453.34;4917056;29;20047;-88
2022/03/01 03:53:02;;;;;;;3.40;2.70;;;;;;;15.60;34.23;94450.63;4932154;29;20035;-89
2022/03/01 03:55:27;;;;;;;3.67;2.72;;;;;;;15.61;33.87;94439.25;4940521;28;20494;-88
2022/03/01 03:57:52;;;;;;;3.60;2.67;;;;;;;15.63;33.85;94442.28;4956345;28;20039;-88
2022/03/01 04:00:18;;;;;;;3.55;2.83;;;;;;;15.61;34.30;94441.22;4939323;28;20090;-89
2022/03/01 04:02:44;;;;;;;4.72;3.22;;;;;;;15.61;33.92;94441.97;4940263;28;20030;-89
2022/03/01 04:05:12;;;;;;;3.70;2.50;;;;;;;15.62;34.02;94440.78;4923321;28;20401;-88
2022/03/01 04:07:39;;;;;;;3.38;2.28;;;;;;;15.61;33.75;94439.25;4921879;29;20039;-88
2022/03/01 04:10:04;;;;;;;3.78;2.40;;;;;;;15.60;33.97;94451.38;4936525;28;20058;-88
2022/03/01 04:12:30;;;;;;;4.32;2.85;;;;;;;15.63;34.00;94444.25;4920844;29;20043;-88
2022/03/01 04:14:55;;;;;;;3.05;2.42;;;;;;;15.64;33.58;94441.06;4937164;29;20036;-88
2022/03/01 04:17:21;;;;;;;4.00;2.50;;;;;;;15.62;33.86;94450.91;4908358;29;20062;-87
2022/03/01 04:19:47;;;;;;;3.50;2.13;;;;;;;15.63;33.73;94449.69;4937000;29;20043;-89
2022/03/01 04:22:12;;;;;;;2.92;2.35;;;;;;;15.60;34.02;94445.19;4920814;29;20039;-89
2022/03/01 04:24:38;;;;;;;3.20;2.25;;;;;;;15.62;33.94;94443.50;4905346;29;20027;-88
2022/03/01 04:27:03;;;;;;;4.05;2.45;;;;;;;15.61;34.01;94441.97;4913930;29;20035;-88
2022/03/01 04:29:29;;;;;;;3.10;2.42;;;;;;;15.63;33.93;94433.34;4904785;29;20798;-87
2022/03/01 04:31:54;;;;;;;2.55;2.35;;;;;;;15.63;34.04;94438.78;4921154;29;20479;-88
2022/03/01 04:34:19;;;;;;;4.65;3.25;;;;;;;15.62;34.08;94435.31;4904449;29;20042;-88
2022/03/01 04:36:45;;;;;;;3.15;2.60;;;;;;;15.62;34.08;94423.66;4917489;28;20105;-90
2022/03/01 04:39:10;;;;;;;7.50;2.50;;;;;;;15.60;34.00;94432.31;4922875;28;20034;-87
2022/03/01 04:41:36;;;;;;;3.88;2.70;;;;;;;15.59;33.73;94432.78;4905238;29;20031;-88
2022/03/01 04:44:05;;;;;;;3.20;2.40;;;;;;;15.61;33.81;94431.09;4907620;28;20022;-90
2022/03/01 04:46:32;;;;;;;3.38;2.40;;;;;;;15.63;33.86;94425.16;4921508;28;20046;-87
2022/03/01 04:48:57;;;;;;;3.13;2.50;;;;;;;15.64;34.05;94432.13;4950238;29;20046;-88
2022/03/01 04:51:22;;;;;;;3.97;2.50;;;;;;;15.60;33.96;94435.03;4949523;28;20046;-87
2022/03/01 04:53:49;;;;;;;3.20;2.42;;;;;;;15.61;33.64;94443.97;4955836;28;20031;-88
2022/03/01 04:56:14;;;;;;;4.07;2.70;;;;;;;15.62;33.92;94442.75;4931569;28;20489;-88
2022/03/01 04:58:40;;;;;;;2.70;2.40;;;;;;;15.63;33.73;94438.78;4935780;29;20040;-86
2022/03/01 05:01:05;;;;;;;2.45;2.10;;;;;;;15.61;34.01;94441.97;4948210;28;20050;-87
2022/03/01 05:03:30;;;;;;;3.20;2.38;;;;;;;15.60;33.92;94445.19;4939497;28;20106;-87
2022/03/01 05:05:56;;;;;;;3.00;2.25;;;;;;;15.56;33.95;94439.19;4938760;28;20044;-87
2022/03/01 05:08:21;;;;;;;4.15;2.35;;;;;;;15.58;34.14;94447.66;4954077;28;20031;-87
2022/03/01 05:10:47;;;;;;;4.20;2.78;;;;;;;15.57;34.17;94449.63;4922467;28;20047;-86
2022/03/01 05:13:12;;;;;;;3.53;2.58;;;;;;;15.57;34.07;94444.16;4935243;28;20260;-86
2022/03/01 05:15:38;;;;;;;3.45;2.25;;;;;;;15.54;33.90;94452.47;4939191;28;20089;-87
2022/03/01 05:18:03;;;;;;;3.53;2.40;;;;;;;15.57;34.31;94451.59;4947181;28;21084;-84
2022/03/01 05:20:29;;;;;;;3.22;2.28;;;;;;;15.54;34.26;94463.38;4948803;28;20047;-85
2022/03/01 05:22:54;;;;;;;3.45;2.60;;;;;;;15.53;34.07;94468.09;4935810;28;20414;-88
2022/03/01 05:25:21;;;;;;;7.40;3.28;;;;;;;15.50;34.19;94465.53;4940484;29;20349;-90
2022/03/01 05:27:47;;;;;;;3.30;2.13;;;;;;;15.53;34.12;94475.50;4943494;28;20038;-86
2022/03/01 05:30:13;;;;;;;7.15;2.60;;;;;;;15.54;34.22;94475.03;4936976;28;20031;-88
2022/03/01 05:32:41;;;;;;;7.78;3.17;;;;;;;15.59;33.83;94468.22;4922740;28;20422;-87
2022/03/01 05:35:09;;;;;;;7.80;4.00;;;;;;;15.65;34.01;94486.19;4922653;28;20069;-87
2022/03/01 05:37:36;;;;;;;12.98;4.70;;;;;;;15.64;33.45;94481.19;4934433;29;20047;-87
2022/03/01 05:40:02;;;;;;;11.00;7.22;;;;;;;15.66;33.67;94487.69;4954124;28;20067;-90
2022/03/01 05:42:27;;;;;;;11.45;5.68;;;;;;;15.66;33.99;94492.38;4936486;28;21814;-86
2022/03/01 05:44:52;;;;;;;15.10;6.13;;;;;;;15.69;34.11;94489.47;4937230;28;20562;-90
2022/03/01 05:47:18;;;;;;;11.70;5.22;;;;;;;15.72;33.81;94494.00;4928077;28;20109;-90
2022/03/01 05:49:43;;;;;;;16.13;5.05;;;;;;;15.68;32.66;94487.97;4912520;28;20108;-90
2022/03/01 05:52:09;;;;;;;35.35;6.43;;;;;;;15.43;28.00;94485.72;4914342;29;20039;-91
2022/03/01 05:54:34;;;;;;;25.63;5.85;;;;;;;15.25;28.98;94492.03;4921691;28;20430;-89
2022/03/01 05:57:00;;;;;;;20.95;10.38;;;;;;;15.23;28.32;94501.88;4930214;28;20040;-88
2022/03/01 05:59:26;;;;;;;38.90;14.25;;;;;;;15.22;28.57;94506.56;4921317;28;20034;-91
2022/03/01 06:01:51;;;;;;;59.92;26.65;;;;;;;15.25;29.09;94513.81;4936265;28;20043;-90
2022/03/01 06:04:18;;;;;;;87.70;40.40;;;;;;;15.29;30.05;94508.22;4918309;28;20974;-88
2022/03/01 06:06:44;;;;;;;76.45;34.17;;;;;;;15.35;31.41;94514.53;4934940;28;20530;-87
2022/03/01 06:09:10;;;;;;;83.03;41.58;;;;;;;15.39;31.39;94501.47;4920818;28;20138;-88
2022/03/01 06:11:35;;;;;;;111.63;54.75;;;;;;;15.42;31.39;94512.19;4914864;28;20051;-88
2022/03/01 06:14:01;;;;;;;78.70;36.08;;;;;;;15.47;31.86;94507.34;4920564;28;20043;-88
2022/03/01 06:16:27;;;;;;;82.45;36.20;;;;;;;15.49;32.09;94505.66;4919885;28;20035;-88
2022/03/01 06:18:52;;;;;;;89.40;37.55;;;;;;;15.52;32.40;94503.97;4919817;29;20047;-88
2022/03/01 06:21:18;;;;;;;85.97;30.83;;;;;;;15.51;32.06;94492.31;4921432;28;20293;-88
2022/03/01 06:23:43;;;;;;;80.00;32.47;;;;;;;15.51;32.20;94500.50;4933209;28;20353;-85
2022/03/01 06:26:09;;;;;;;128.23;41.65;;;;;;;15.51;32.48;94497.78;4945000;29;20043;-86
2022/03/01 06:28:34;;;;;;;99.32;42.95;;;;;;;15.52;32.08;94510.19;4929696;28;20061;-86
2022/03/01 06:31:00;;;;;;;93.00;36.72;;;;;;;15.53;32.16;94508.97;4915851;29;20031;-86
2022/03/01 06:33:25;;;;;;;95.07;30.08;;;;;;;15.53;31.84;94506.22;4921770;28;20039;-89
2022/03/01 06:35:52;;;;;;;82.65;32.83;;;;;;;15.59;32.24;94503.66;4934728;28;20038;-88
2022/03/01 06:38:17;;;;;;;89.32;35.92;;;;;;;15.61;32.23;94518.28;4922154;28;20039;-93
2022/03/01 06:40:43;;;;;;;90.47;36.72;;;;;;;15.67;31.92;94508.28;4932565;28;20061;-91
2022/03/01 06:43:08;;;;;;;128.82;46.92;;;;;;;15.73;32.11;94511.09;4922939;28;20134;-87
2022/03/01 06:45:34;;;;;;;132.07;53.03;;;;;;;15.79;32.06;94513.94;4930477;28;20062;-89
2022/03/01 06:47:59;;;;;;;183.30;75.90;;;;;;;15.79;31.89;94508.50;4932143;29;20046;-89
2022/03/01 06:50:26;;;;;;;303.60;85.68;;;;;;;15.78;32.19;94505.03;4920846;28;20038;-91
2022/03/01 06:52:52;;;;;;;156.73;71.15;;;;;;;15.82;31.81;94508.28;4945657;28;20057;-94
2022/03/01 06:55:19;;;;;;;143.20;51.50;;;;;;;15.76;29.89;94521.84;4936890;28;20062;-89
2022/03/01 06:57:44;;;;;;;104.88;39.22;;;;;;;15.58;29.14;94513.06;4936751;28;20031;-88
2022/03/01 07:00:11;;;;;;;97.53;37.90;;;;;;;15.53;29.21;94516.38;4918552;28;20445;-90
2022/03/01 07:02:38;;;;;;;122.05;43.97;;;;;;;15.53;30.09;94506.22;4931203;29;20040;-91
2022/03/01 07:05:06;;;;;;;102.18;44.13;;;;;;;15.55;31.21;94506.53;4925632;28;20096;-89
2022/03/01 07:07:33;;;;;;;104.07;44.65;;;;;;;15.61;30.95;94523.75;4919898;28;20031;-88
2022/03/01 07:09:58;;;;;;;87.15;39.08;;;;;;;15.61;31.58;94515.56;4949118;28;20039;-87
2022/03/01 07:12:24;;;;;;;86.45;40.08;;;;;;;15.64;31.36;94525.56;4918539;28;20045;-87
2022/03/01 07:14:49;;;;;;;95.15;41.10;;;;;;;15.66;30.49;94517.66;4932757;28;20043;-88
2022/03/01 07:17:17;;;;;;;113.00;45.80;;;;;;;15.62;29.99;94514.34;4920721;28;20248;-87
2022/03/01 07:19:43;;;;;;;301.08;74.03;;;;;;;15.60;30.72;94526.94;4949890;28;20090;-86
2022/03/01 07:22:08;;;;;;;116.18;44.35;;;;;;;15.62;31.24;94521.78;4947986;28;20042;-90
2022/03/01 07:24:34;;;;;;;121.72;45.55;;;;;;;15.67;31.07;94524.63;4915557;28;20395;-86
2022/03/01 07:27:00;;;;;;;134.77;50.03;;;;;;;15.69;31.34;94527.63;4933301;29;20063;-87
2022/03/01 07:29:25;;;;;;;119.07;43.42;;;;;;;15.78;31.09;94521.38;4939768;28;20047;-87
2022/03/01 07:31:52;;;;;;;103.35;42.58;;;;;;;15.75;30.96;94525.03;4932940;28;20490;-87
2022/03/01 07:34:18;;;;;;;100.65;41.78;;;;;;;15.75;30.91;94517.59;4941563;28;20042;-85
2022/03/01 07:36:43;;;;;;;104.15;48.33;;;;;;;15.80;31.27;94520.91;4952454;28;20050;-86
2022/03/01 07:39:09;;;;;;;96.30;44.70;;;;;;;15.81;31.49;94525.88;4937215;28;20062;-84
2022/03/01 07:41:34;;;;;;;102.30;44.58;;;;;;;15.85;31.27;94522.97;4920809;28;20057;-90
2022/03/01 07:43:59;;;;;;;92.53;40.42;;;;;;;15.90;31.28;94523.09;4938679;28;20051;-87
2022/03/01 07:46:25;;;;;;;131.25;45.08;;;;;;;15.91;31.65;94526.56;4936614;28;20043;-90
2022/03/01 07:48:50;;;;;;;121.97;42.70;;;;;;;15.92;32.07;94523.38;4927418;29;20459;-86
2022/03/01 07:51:16;;;;;;;172.75;63.22;;;;;;;15.93;31.74;94515.94;4901213;29;20032;-85
2022/03/01 07:53:42;;;;;;;257.17;103.57;;;;;;;15.96;31.81;94515.00;4911989;29;20127;-87
2022/03/01 07:56:07;;;;;;;292.70;138.77;;;;;;;15.99;31.74;94517.56;4928240;29;20131;-87
2022/03/01 07:58:33;;;;;;;423.55;215.23;;;;;;;15.98;32.14;94520.75;4909115;29;20060;-89
2022/03/01 08:00:58;;;;;;;389.13;200.70;;;;;;;15.99;31.99;94527.72;4911520;29;21015;-91
2022/03/01 08:03:24;;;;;;;252.75;111.90;;;;;;;15.99;31.53;94525.75;4895477;29;20056;-89
2022/03/01 08:05:49;;;;;;;237.85;103.15;;;;;;;16.03;31.40;94520.84;4895496;29;20051;-84
2022/03/01 08:08:15;;;;;;;267.77;117.63;;;;;;;16.07;31.52;94520.66;4900213;29;20411;-91
2022/03/01 08:10:41;;;;;;;257.38;110.10;;;;;;;16.08;31.71;94517.47;4896648;29;20597;-89
2022/03/01 08:13:06;;;;;;;242.52;105.22;;;;;;;16.12;31.56;94520.00;4905400;28;20039;-87
2022/03/01 08:15:32;;;;;;;276.52;118.72;;;;;;;16.15;31.40;94521.06;4923347;29;20042;-90
2022/03/01 08:17:57;;;;;;;282.02;108.05;;;;;;;16.18;31.55;94520.13;4901881;29;20107;-88
2022/03/01 08:20:26;;;;;;;263.92;105.10;;;;;;;16.22;31.88;94518.72;4896449;29;20043;-91
2022/03/01 08:22:52;;;;;;;232.43;100.45;;;;;;;16.21;31.47;94525.41;4899853;29;20066;-88
2022/03/01 08:25:18;;;;;;;251.23;101.72;;;;;;;16.22;31.53;94531.59;4892733;29;20748;-89
2022/03/01 08:27:43;;;;;;;220.45;92.25;;;;;;;16.22;31.58;94532.34;4892876;29;20044;-86
2022/03/01 08:30:09;;;;;;;213.98;93.28;;;;;;;16.25;31.87;94536.09;4899363;29;20040;-91
2022/03/01 08:32:34;;;;;;;207.40;85.25;;;;;;;16.27;31.42;94534.41;4898948;29;20062;-87
2022/03/01 08:35:00;;;;;;;177.48;79.63;;;;;;;16.27;31.73;94533.66;4882577;29;20489;-86
2022/03/01 08:37:26;;;;;;;174.73;73.90;;;;;;;16.30;32.21;94530.00;4915771;28;20434;-89
2022/03/01 08:39:52;;;;;;;177.35;77.47;;;;;;;16.32;31.61;94533.00;4928399;29;20505;-86
2022/03/01 08:42:18;;;;;;;154.60;71.50;;;;;;;16.34;31.75;94527.84;4916697;29;20039;-88
2022/03/01 08:44:44;;;;;;;207.95;80.18;;;;;;;16.33;31.68;94509.97;4901394;29;20419;-91
2022/03/01 08:47:09;;;;;;;157.35;69.93;;;;;;;16.32;31.60;94520.13;4903919;28;20132;-89
2022/03/01 08:49:34;;;;;;;150.98;65.25;;;;;;;16.33;31.55;94518.91;4915335;28;20465;-92
2022/03/01 08:52:00;;;;;;;155.05;66.25;;;;;;;16.33;31.45;94515.41;4930332;28;20379;-88
2022/03/01 08:54:25;;;;;;;145.45;65.88;;;;;;;16.34;31.42;94514.94;4927958;28;20130;-88
2022/03/01 08:56:51;;;;;;;130.85;62.58;;;;;;;16.34;32.14;94514.19;4923315;28;20113;-90
2022/03/01 08:59:17;;;;;;;149.88;62.60;;;;;;;16.36;31.80;94522.66;4938527;28;20214;-87
2022/03/01 09:01:43;;;;;;;144.70;58.47;;;;;;;16.30;31.61;94510.88;4923881;28;20065;-90
2022/03/01 09:04:09;;;;;;;123.95;58.05;;;;;;;16.36;31.79;94517.97;4916706;29;20491;-89
2022/03/01 09:06:34;;;;;;;154.15;63.00;;;;;;;16.37;31.89;94518.72;4914438;29;20047;-88
2022/03/01 09:08:59;;;;;;;1118.18;225.85;;;;;;;16.37;30.46;94515.97;4917689;28;20521;-89
2022/03/01 09:11:25;;;;;;;462.90;83.93;;;;;;;16.26;27.91;94516.53;4937473;28;20078;-87
2022/03/01 09:13:50;;;;;;;278.15;59.92;;;;;;;16.23;28.10;94512.03;4916638;29;20062;-86
2022/03/01 09:16:16;;;;;;;229.80;54.20;;;;;;;16.20;27.74;94512.22;4915499;28;20072;-86
2022/03/01 09:18:42;;;;;;;227.80;55.97;;;;;;;16.22;28.06;94509.78;4937125;28;20109;-87
2022/03/01 09:21:07;;;;;;;245.95;61.42;;;;;;;16.24;29.46;94502.59;4933910;28;20035;-87
2022/03/01 09:23:33;;;;;;;259.17;68.28;;;;;;;16.29;29.50;94491.03;4936098;28;20056;-88
2022/03/01 09:25:58;;;;;;;248.05;74.55;;;;;;;16.30;30.05;94481.63;4919703;28;20046;-87
2022/03/01 09:28:24;;;;;;;287.13;83.80;;;;;;;16.33;30.10;94482.66;4935336;28;20454;-88
2022/03/01 09:30:49;;;;;;;273.38;81.72;;;;;;;16.28;30.55;94475.88;4938511;28;20411;-87
2022/03/01 09:33:15;;;;;;;282.67;81.32;;;;;;;16.30;30.33;94467.25;4938896;28;20039;-87
2022/03/01 09:35:40;;;;;;;226.15;76.00;;;;;;;16.34;30.83;94470.53;4920184;28;20406;-87
2022/03/01 09:38:06;;;;;;;225.90;76.22;;;;;;;16.35;30.58;94469.31;4941234;28;20058;-88
2022/03/01 09:40:31;;;;;;;221.43;77.18;;;;;;;16.36;30.65;94463.38;4916908;28;20054;-86
2022/03/01 09:42:56;;;;;;;212.30;72.95;;;;;;;16.38;30.77;94469.13;4934269;28;20062;-88
2022/03/01 09:45:22;;;;;;;244.10;83.03;;;;;;;16.41;30.89;94467.44;4883153;28;20611;-89
2022/03/01 09:47:47;;;;;;;238.30;81.95;;;;;;;16.40;30.72;94472.13;4887817;29;20044;-86
2022/03/01 09:50:13;;;;;;;244.10;93.07;;;;;;;16.47;31.27;94470.97;4893527;29;20056;-90
2022/03/01 09:52:39;;;;;;;262.17;102.03;;;;;;;16.50;31.18;94466.56;4850647;29;20044;-88
2022/03/01 09:55:05;;;;;;;272.35;108.45;;;;;;;16.51;30.96;94459.88;4868198;29;20040;-90
2022/03/01 09:57:31;;;;;;;279.73;112.82;;;;;;;16.50;31.28;94453.66;4872430;29;20052;-89
2022/03/01 09:59:56;;;;;;;324.63;138.02;;;;;;;16.51;31.11;94455.16;4858824;29;20044;-91
2022/03/01 10:02:32;;;;;;;328.63;132.82;;;;;;;16.51;31.13;94449.72;4833811;29;20052;-91
2022/03/01 10:04:58;;;;;;;317.90;145.73;;;;;;;16.54;31.38;94446.03;4830511;29;20084;-89
2022/03/01 10:07:26;;;;;;;339.10;148.85;;;;;;;16.57;31.15;94442.38;4828597;29;20048;-89
2022/03/01 10:09:51;;;;;;;319.58;139.00;;;;;;;16.56;31.31;94421.00;4831425;29;20052;-89
2022/03/01 10:12:26;;;;;;;302.60;135.07;;;;;;;16.52;31.35;94423.94;4827436;29;20075;-90
2022/03/01 10:15:02;;;;;;;286.27;124.65;;;;;;;16.54;31.47;94426.19;4856169;29;20056;-86
2022/03/01 10:17:39;;;;;;;281.48;122.30;;;;;;;16.54;31.27;94432.38;4827947;29;20059;-90
2022/03/01 10:20:09;;;;;;;257.98;115.47;;;;;;;16.55;31.25;94422.97;4827715;29;20476;-88
2022/03/01 10:22:37;;;;;;;252.65;109.80;;;;;;;16.53;31.30;94422.69;4880035;29;21304;-88
2022/03/01 10:25:06;;;;;;;241.95;109.40;;;;;;;16.56;31.64;94429.94;4851433;29;20075;-88
2022/03/01 10:27:32;;;;;;;225.23;98.30;;;;;;;16.57;31.22;94420.53;4863954;29;20488;-88
2022/03/01 10:29:57;;;;;;;230.05;99.68;;;;;;;16.56;31.68;94429.19;4878279;29;20068;-92
2022/03/01 10:32:23;;;;;;;216.63;97.22;;;;;;;16.56;31.67;94416.28;4881187;29;20040;-90
2022/03/01 10:35:03;;;;;;;217.40;95.80;;;;;;;16.55;31.65;94425.72;4913131;29;20044;-88
2022/03/01 10:37:31;;;;;;;221.67;91.27;;;;;;;16.57;31.83;94415.06;4872979;29;20142;-88
2022/03/01 10:40:19;;;;;;;272.55;125.78;;;;;;;16.57;31.55;94417.81;4894367;29;20290;-88
2022/03/01 10:42:45;;;;;;;323.75;154.45;;;;;;;16.59;31.41;94414.59;4884810;29;20550;-89
2022/03/01 10:45:11;;;;;;;261.20;123.50;;;;;;;16.60;31.33;94421.56;4890443;29;20070;-89
2022/03/01 10:47:37;;;;;;;288.75;120.13;;;;;;;16.60;31.76;94416.84;4863301;29;20494;-89
2022/03/01 10:50:05;;;;;;;285.08;126.25;;;;;;;16.61;31.57;94418.34;4930405;29;20426;-89
2022/03/01 10:52:33;;;;;;;316.30;146.52;;;;;;;16.60;31.92;94403.22;4921675;29;20031;-89
2022/03/01 10:54:59;;;;;;;378.83;180.77;;;;;;;16.60;31.62;94408.66;4932804;29;20066;-86
2022/03/01 10:57:24;;;;;;;316.98;137.52;;;;;;;16.61;31.43;94403.97;4930159;29;20074;-92
2022/03/01 10:59:50;;;;;;;289.98;113.55;;;;;;;16.57;32.02;94406.13;4919408;29;20047;-91
2022/03/01 11:02:19;;;;;;;321.98;126.63;;;;;;;16.61;31.76;94401.97;4892018;28;20411;-87
2022/03/01 11:04:45;;;;;;;290.13;119.95;;;;;;;16.53;32.57;94402.84;4911591;29;20114;-91
2022/03/01 11:07:11;;;;;;;269.88;114.43;;;;;;;16.33;32.43;94398.09;4924705;28;20043;-91
2022/03/01 11:09:36;;;;;;;292.75;124.32;;;;;;;16.21;32.84;94397.16;4924829;29;20052;-92
2022/03/01 11:12:04;;;;;;;272.38;122.72;;;;;;;16.14;32.61;94392.09;4919113;28;20039;-90
2022/03/01 11:14:33;;;;;;;265.75;119.50;;;;;;;16.12;32.69;94389.09;4917053;29;20059;-92
2022/03/01 11:17:10;;;;;;;250.55;118.28;;;;;;;16.13;32.95;94387.84;4892137;29;20055;-91
2022/03/01 11:20:08;;;;;;;253.15;117.25;;;;;;;16.11;33.35;94380.16;4883440;29;20315;-92